createdAt,value
2022-08-07T00:00:52.948Z,18.20
2022-08-07T00:03:25.738Z,18.20
2022-08-07T00:05:54.123Z,18.20
2022-08-07T00:08:22.801Z,18.10
2022-08-07T00:10:57.438Z,18.20
2022-08-07T00:13:27.650Z,18.20
2022-08-07T00:15:56.346Z,18.20
2022-08-07T00:18:26.460Z,18.20
2022-08-07T00:20:57.612Z,18.10
2022-08-07T00:23:31.300Z,18.10
2022-08-07T00:26:10.836Z,18.00
2022-08-07T00:28:56.658Z,18.00
2022-08-07T00:31:37.482Z,17.90
2022-08-07T00:34:09.125Z,17.90
2022-08-07T00:36:38.625Z,17.90
2022-08-07T00:39:12.768Z,17.90
2022-08-07T00:41:53.222Z,17.80
2022-08-07T00:44:23.475Z,17.80
2022-08-07T00:46:55.423Z,17.80
2022-08-07T00:49:24.903Z,17.80
2022-08-07T00:52:12.277Z,17.60
2022-08-07T00:54:41.224Z,17.60
2022-08-07T00:57:10.505Z,17.50
2022-08-07T00:59:41.839Z,17.50
2022-08-07T01:02:27.812Z,17.40
2022-08-07T01:04:58.640Z,17.40
2022-08-07T01:07:28.468Z,17.40
2022-08-07T01:10:06.991Z,17.30
2022-08-07T01:12:53.547Z,17.30
2022-08-07T01:15:35.745Z,17.30
2022-08-07T01:18:16.983Z,17.30
2022-08-07T01:20:57.498Z,17.30
2022-08-07T01:23:35.413Z,17.20
2022-08-07T01:26:08.388Z,17.20
2022-08-07T01:28:40.285Z,17.20
2022-08-07T01:31:15.587Z,17.20
2022-08-07T01:33:55.461Z,17.10
2022-08-07T01:36:34.075Z,17.10
2022-08-07T01:39:10.621Z,17.10
2022-08-07T01:41:40.912Z,17.10
2022-08-07T01:44:28.534Z,17.10
2022-08-07T01:46:57.170Z,17.10
2022-08-07T01:49:29.059Z,17.10
2022-08-07T01:52:04.933Z,17.10
2022-08-07T01:54:39.345Z,17.00
2022-08-07T01:57:24.585Z,17.00
2022-08-07T01:59:56.891Z,17.00
2022-08-07T02:03:11.455Z,17.00
2022-08-07T02:05:47.589Z,17.00
2022-08-07T02:08:15.760Z,17.00
2022-08-07T02:10:55.093Z,17.00
2022-08-07T02:13:56.277Z,17.00
2022-08-07T02:16:16.062Z,17.00
2022-08-07T02:18:47.182Z,17.10
2022-08-07T02:21:17.988Z,17.10
2022-08-07T02:23:48.031Z,17.10
2022-08-07T02:26:33.895Z,17.00
2022-08-07T02:29:04.261Z,17.00
2022-08-07T02:31:33.392Z,17.00
2022-08-07T02:34:10.965Z,17.00
2022-08-07T02:36:41.447Z,17.00
2022-08-07T02:39:17.038Z,16.90
2022-08-07T02:42:00.524Z,16.90
2022-08-07T02:44:34.282Z,16.90
2022-08-07T02:47:05.097Z,16.90
2022-08-07T02:49:58.519Z,16.90
2022-08-07T02:52:31.250Z,16.80
2022-08-07T02:55:04.130Z,16.80
2022-08-07T02:57:38.444Z,16.80
2022-08-07T03:00:10.538Z,16.80
2022-08-07T03:02:54.382Z,16.70
2022-08-07T03:05:24.477Z,16.70
2022-08-07T03:08:07.085Z,16.60
2022-08-07T03:10:40.941Z,16.60
2022-08-07T03:13:19.692Z,16.60
2022-08-07T03:15:56.591Z,16.60
2022-08-07T03:18:34.916Z,16.60
2022-08-07T03:21:08.614Z,16.50
2022-08-07T03:24:20.117Z,16.40
2022-08-07T03:26:32.280Z,16.30
2022-08-07T03:29:04.082Z,16.20
2022-08-07T03:31:42.470Z,16.20
2022-08-07T03:34:18.719Z,16.20
2022-08-07T03:36:51.787Z,16.10
2022-08-07T03:39:59.025Z,16.10
2022-08-07T03:42:10.424Z,16.10
2022-08-07T03:44:40.467Z,16.10
2022-08-07T03:47:11.274Z,16.00
2022-08-07T03:49:52.001Z,16.00
2022-08-07T03:52:26.667Z,16.00
2022-08-07T03:54:57.136Z,16.00
2022-08-07T03:58:35.389Z,16.00
2022-08-07T04:00:21.132Z,16.00
2022-08-07T04:02:57.851Z,16.00
2022-08-07T04:05:39.886Z,16.00
2022-08-07T04:08:12.440Z,16.00
2022-08-07T04:10:42.388Z,16.10
2022-08-07T04:13:15.118Z,16.10
2022-08-07T04:15:45.912Z,16.20
2022-08-07T04:18:57.613Z,16.50
2022-08-07T04:21:07.230Z,17.30
2022-08-07T04:23:43.843Z,18.30
2022-08-07T04:26:28.348Z,19.00
2022-08-07T04:28:56.759Z,20.00
2022-08-07T04:32:02.291Z,20.70
2022-08-07T04:34:17.390Z,21.10
2022-08-07T04:36:55.798Z,21.60
2022-08-07T04:39:25.970Z,22.20
2022-08-07T04:41:54.746Z,22.50
2022-08-07T04:44:22.969Z,23.00
2022-08-07T04:47:07.898Z,23.60
2022-08-07T04:49:47.494Z,24.10
2022-08-07T04:52:35.103Z,24.70
2022-08-07T04:55:14.787Z,25.20
2022-08-07T04:58:10.080Z,25.10
2022-08-07T05:00:55.897Z,24.70
2022-08-07T05:04:00.978Z,25.40
2022-08-07T05:06:28.101Z,26.00
2022-08-07T05:09:03.037Z,26.90
2022-08-07T05:11:56.816Z,27.20
2022-08-07T05:14:52.969Z,27.40
2022-08-07T05:17:50.796Z,28.40
2022-08-07T05:20:14.800Z,28.70
2022-08-07T05:22:46.415Z,29.10
2022-08-07T05:25:25.536Z,29.50
2022-08-07T05:28:20.221Z,29.50
2022-08-07T05:30:53.908Z,30.40
2022-08-07T05:33:24.269Z,31.00
2022-08-07T05:35:57.293Z,31.70
2022-08-07T05:38:58.412Z,32.10
2022-08-07T05:41:16.753Z,32.70
2022-08-07T05:44:12.058Z,33.00
2022-08-07T05:46:39.369Z,33.40
2022-08-07T05:49:11.781Z,33.70
2022-08-07T05:51:43.405Z,34.00
2022-08-07T05:54:30.785Z,34.10
2022-08-07T05:57:00.336Z,34.10
2022-08-07T05:59:29.771Z,34.20
2022-08-07T06:02:21.495Z,34.00
2022-08-07T06:05:00.821Z,33.70
2022-08-07T06:08:09.334Z,34.40
2022-08-07T06:10:22.634Z,34.70
2022-08-07T06:12:50.833Z,35.60
2022-08-07T06:15:20.410Z,35.90
2022-08-07T06:17:53.822Z,36.30
2022-08-07T06:20:25.648Z,36.50
2022-08-07T06:23:45.724Z,36.50
2022-08-07T06:26:03.369Z,36.90
2022-08-07T06:28:32.170Z,37.40
2022-08-07T06:31:01.401Z,37.90
2022-08-07T06:33:33.172Z,38.10
2022-08-07T06:36:06.808Z,37.80
2022-08-07T06:38:59.494Z,37.20
2022-08-07T06:42:00.504Z,36.90
2022-08-07T06:44:26.167Z,36.60
2022-08-07T06:47:10.083Z,36.10
2022-08-07T06:49:52.377Z,36.80
2022-08-07T06:52:35.510Z,36.70
2022-08-07T06:55:33.326Z,37.30
2022-08-07T06:58:00.842Z,38.30
2022-08-07T07:00:32.398Z,38.50
2022-08-07T07:03:08.688Z,38.90
2022-08-07T07:06:04.110Z,39.30
2022-08-07T07:08:28.462Z,39.50
2022-08-07T07:10:59.028Z,39.50
2022-08-07T07:13:55.367Z,39.50
2022-08-07T07:16:27.539Z,39.90
2022-08-07T07:19:11.253Z,40.30
2022-08-07T07:22:11.681Z,40.40
2022-08-07T07:24:43.245Z,40.10
2022-08-07T07:27:35.641Z,39.70
2022-08-07T07:30:26.589Z,39.40
2022-08-07T07:33:02.843Z,39.50
2022-08-07T07:35:33.642Z,40.50
2022-08-07T07:38:14.615Z,40.90
2022-08-07T07:40:44.047Z,41.30
2022-08-07T07:43:18.848Z,41.20
2022-08-07T07:46:37.173Z,40.90
2022-08-07T07:48:45.986Z,41.60
2022-08-07T07:51:16.646Z,41.60
2022-08-07T07:53:52.592Z,41.80
2022-08-07T07:56:29.743Z,41.80
2022-08-07T07:59:02.337Z,41.40
2022-08-07T08:02:04.851Z,41.70
2022-08-07T08:04:25.796Z,41.10
2022-08-07T08:06:55.211Z,41.00
2022-08-07T08:09:29.128Z,41.10
2022-08-07T08:12:02.102Z,41.00
2022-08-07T08:14:34.253Z,40.70
2022-08-07T08:17:55.802Z,40.30
2022-08-07T08:20:19.142Z,40.90
2022-08-07T08:23:08.117Z,41.30
2022-08-07T08:25:58.226Z,42.40
2022-08-07T08:28:37.849Z,42.60
2022-08-07T08:31:14.901Z,42.10
2022-08-07T08:33:50.101Z,41.90
2022-08-07T08:36:31.350Z,41.40
2022-08-07T08:39:03.808Z,42.00
2022-08-07T08:41:59.209Z,41.50
2022-08-07T08:44:41.217Z,39.80
2022-08-07T08:47:25.158Z,39.10
2022-08-07T08:50:05.522Z,39.00
2022-08-07T08:52:40.934Z,39.70
2022-08-07T08:55:53.162Z,39.40
2022-08-07T08:58:28.656Z,38.50
2022-08-07T09:01:14.746Z,38.00
2022-08-07T09:03:57.006Z,37.70
2022-08-07T09:06:47.746Z,37.60
2022-08-07T09:09:47.530Z,37.10
2022-08-07T09:12:31.838Z,37.80
2022-08-07T09:16:24.818Z,38.50
2022-08-07T09:18:36.612Z,38.40
2022-08-07T09:21:33.784Z,38.00
2022-08-07T09:24:29.074Z,38.10
2022-08-07T09:27:12.061Z,37.70
2022-08-07T09:30:04.954Z,37.70
2022-08-07T09:33:05.258Z,36.80
2022-08-07T09:36:01.173Z,37.30
2022-08-07T09:38:50.098Z,36.30
2022-08-07T09:41:43.416Z,35.80
2022-08-07T09:44:40.451Z,35.50
2022-08-07T09:47:51.148Z,35.20
2022-08-07T09:50:21.941Z,35.80
2022-08-07T09:52:54.055Z,36.30
2022-08-07T09:56:02.390Z,36.40
2022-08-07T09:58:53.831Z,36.30
2022-08-07T10:01:52.239Z,36.10
2022-08-07T10:04:38.090Z,35.90
2022-08-07T10:07:25.669Z,36.00
2022-08-07T10:10:07.016Z,35.70
2022-08-07T10:13:11.128Z,35.90
2022-08-07T10:16:11.001Z,36.30
2022-08-07T10:19:16.951Z,36.50
2022-08-07T10:22:15.682Z,35.90
2022-08-07T10:25:00.175Z,35.80
2022-08-07T10:27:51.360Z,36.20
2022-08-07T10:30:26.529Z,36.90
2022-08-07T10:33:18.794Z,37.30
2022-08-07T10:36:13.661Z,36.30
2022-08-07T10:38:53.981Z,36.00
2022-08-07T10:41:51.651Z,35.50
2022-08-07T10:44:37.383Z,35.60
2022-08-07T10:47:16.759Z,34.90
2022-08-07T10:49:50.942Z,34.40
2022-08-07T10:52:31.885Z,34.20
2022-08-07T10:55:20.840Z,34.70
2022-08-07T10:58:08.811Z,35.40
2022-08-07T11:00:50.381Z,36.00
2022-08-07T11:03:51.200Z,35.50
2022-08-07T11:06:29.846Z,34.90
2022-08-07T11:09:04.139Z,34.70
2022-08-07T11:11:45.613Z,35.20
2022-08-07T11:14:43.411Z,35.30
2022-08-07T11:17:23.317Z,35.00
2022-08-07T11:20:15.921Z,34.80
2022-08-07T11:22:54.808Z,35.10
2022-08-07T11:25:26.745Z,34.80
2022-08-07T11:28:04.396Z,34.40
2022-08-07T11:30:42.746Z,33.30
2022-08-07T11:33:19.991Z,32.60
2022-08-07T11:36:20.603Z,32.80
2022-08-07T11:39:02.236Z,32.80
2022-08-07T11:42:01.631Z,32.80
2022-08-07T11:44:51.988Z,32.50
2022-08-07T11:47:39.221Z,31.90
2022-08-07T11:50:44.290Z,31.40
2022-08-07T11:53:25.514Z,31.00
2022-08-07T11:56:27.178Z,30.80
2022-08-07T12:00:08.264Z,30.90
2022-08-07T12:02:03.745Z,30.80
2022-08-07T12:05:00.609Z,30.60
2022-08-07T12:07:38.739Z,30.40
2022-08-07T12:10:14.800Z,30.00
2022-08-07T12:12:48.824Z,29.70
2022-08-07T12:15:46.000Z,29.60
2022-08-07T12:18:22.230Z,29.90
2022-08-07T12:21:06.265Z,30.00
2022-08-07T12:24:05.538Z,29.90
2022-08-07T12:26:46.683Z,29.80
2022-08-07T12:29:37.776Z,29.80
2022-08-07T12:32:15.333Z,29.80
2022-08-07T12:34:49.513Z,30.00
2022-08-07T12:37:23.562Z,30.00
2022-08-07T12:39:59.653Z,29.60
2022-08-07T12:42:33.014Z,29.10
2022-08-07T12:45:08.052Z,28.80
2022-08-07T12:47:44.022Z,28.70
2022-08-07T12:50:34.459Z,28.50
2022-08-07T12:53:18.599Z,28.50
2022-08-07T12:56:03.422Z,27.90
2022-08-07T12:58:39.541Z,27.60
2022-08-07T13:01:18.685Z,27.50
2022-08-07T13:04:05.038Z,27.50
2022-08-07T13:07:00.229Z,27.50
2022-08-07T13:10:20.427Z,27.50
2022-08-07T13:12:41.321Z,27.50
2022-08-07T13:15:29.544Z,27.60
2022-08-07T13:18:26.018Z,27.70
2022-08-07T13:21:00.857Z,27.60
2022-08-07T13:24:04.304Z,27.50
2022-08-07T13:26:32.262Z,27.40
2022-08-07T13:29:09.933Z,27.30
2022-08-07T13:31:57.632Z,27.30
2022-08-07T13:34:38.632Z,27.20
2022-08-07T13:37:30.709Z,27.30
2022-08-07T13:40:35.097Z,27.30
2022-08-07T13:42:59.273Z,27.40
2022-08-07T13:46:12.042Z,27.60
2022-08-07T13:48:20.645Z,27.50
2022-08-07T13:51:01.948Z,27.30
2022-08-07T13:53:36.017Z,27.30
2022-08-07T13:56:36.084Z,27.40
2022-08-07T13:59:13.851Z,27.40
2022-08-07T14:02:03.739Z,27.50
2022-08-07T14:04:48.953Z,27.50
2022-08-07T14:07:21.153Z,27.40
2022-08-07T14:10:02.489Z,27.20
2022-08-07T14:12:58.609Z,27.10
2022-08-07T14:15:35.312Z,26.90
2022-08-07T14:18:27.734Z,26.90
2022-08-07T14:21:11.645Z,26.80
2022-08-07T14:24:00.591Z,26.70
2022-08-07T14:26:35.855Z,26.70
2022-08-07T14:30:04.797Z,26.80
2022-08-07T14:32:00.803Z,27.10
2022-08-07T14:34:31.895Z,27.10
2022-08-07T14:37:04.388Z,27.10
2022-08-07T14:40:16.827Z,27.10
2022-08-07T14:42:31.385Z,27.10
2022-08-07T14:45:21.780Z,27.00
2022-08-07T14:47:51.406Z,27.00
2022-08-07T14:50:27.971Z,26.90
2022-08-07T14:53:07.751Z,26.90
2022-08-07T14:55:39.355Z,27.00
2022-08-07T14:58:28.217Z,27.00
2022-08-07T15:01:00.144Z,27.10
2022-08-07T15:06:39.459Z,27.00
2022-08-07T15:12:07.919Z,26.90
2022-08-07T15:14:55.995Z,26.80
2022-08-07T15:17:32.665Z,26.80
2022-08-07T15:23:20.495Z,26.80
2022-08-07T15:25:54.690Z,26.70
2022-08-07T15:28:33.093Z,26.80
2022-08-07T15:31:12.204Z,26.90
2022-08-07T15:33:43.056Z,27.00
2022-08-07T15:36:12.430Z,27.10
2022-08-07T15:42:45.042Z,27.30
2022-08-07T15:44:24.636Z,27.30
2022-08-07T15:50:04.267Z,27.20
2022-08-07T15:52:37.454Z,27.20
2022-08-07T15:55:11.361Z,27.20
2022-08-07T15:57:48.719Z,27.00
2022-08-07T16:00:31.001Z,27.00
2022-08-07T16:03:04.704Z,27.00
2022-08-07T16:05:34.261Z,26.90
2022-08-07T16:08:33.271Z,27.00
2022-08-07T16:11:02.464Z,27.00
2022-08-07T16:14:03.132Z,27.00
2022-08-07T16:16:47.900Z,27.00
2022-08-07T16:19:59.147Z,26.90
2022-08-07T16:22:54.576Z,26.90
2022-08-07T16:25:55.006Z,26.80
2022-08-07T16:29:18.730Z,26.80
2022-08-07T16:31:51.654Z,26.90
2022-08-07T16:34:34.399Z,26.80
2022-08-07T16:38:06.451Z,26.80
2022-08-07T16:41:02.091Z,26.80
2022-08-07T16:44:05.531Z,27.00
2022-08-07T16:47:41.197Z,27.00
2022-08-07T16:50:35.695Z,26.90
2022-08-07T16:54:01.644Z,26.90
2022-08-07T16:56:14.467Z,26.90
2022-08-07T16:59:10.912Z,26.80
2022-08-07T17:01:56.910Z,26.90
2022-08-07T17:04:36.879Z,27.00
2022-08-07T17:07:28.134Z,26.80
2022-08-07T17:10:32.230Z,26.80
2022-08-07T17:13:17.718Z,26.80
2022-08-07T17:15:54.436Z,26.90
2022-08-07T17:18:31.428Z,26.90
2022-08-07T17:21:02.841Z,26.90
2022-08-07T17:23:57.786Z,26.90
2022-08-07T17:26:48.154Z,26.90
2022-08-07T17:30:14.765Z,26.70
2022-08-07T17:32:30.431Z,26.60
2022-08-07T17:35:51.742Z,26.50
2022-08-07T17:38:06.093Z,26.50
2022-08-07T17:40:51.222Z,26.40
2022-08-07T17:44:03.141Z,26.40
2022-08-07T17:46:34.404Z,26.50
2022-08-07T17:49:09.725Z,26.50
2022-08-07T17:51:59.601Z,26.50
2022-08-07T17:54:53.210Z,26.40
2022-08-07T17:57:32.044Z,26.40
2022-08-07T18:00:32.859Z,26.40
2022-08-07T18:03:18.143Z,26.30
2022-08-07T18:06:02.756Z,26.30
2022-08-07T18:09:00.524Z,26.30
2022-08-07T18:12:11.958Z,26.20
2022-08-07T18:14:32.314Z,26.10
2022-08-07T18:18:46.768Z,26.00
2022-08-07T18:21:08.957Z,25.90
2022-08-07T18:23:42.086Z,25.90
2022-08-07T18:26:02.326Z,25.90
2022-08-07T18:28:58.118Z,25.80
2022-08-07T18:31:50.388Z,25.70
2022-08-07T18:34:53.378Z,25.70
2022-08-07T18:38:56.829Z,25.60
2022-08-07T18:40:50.171Z,25.60
2022-08-07T18:43:42.799Z,25.50
2022-08-07T18:46:27.402Z,25.40
2022-08-07T18:50:31.465Z,25.40
2022-08-07T18:52:41.086Z,25.40
2022-08-07T18:55:40.723Z,25.30
2022-08-07T18:58:24.143Z,25.20
2022-08-07T19:01:05.636Z,25.10
2022-08-07T19:03:45.549Z,25.10
2022-08-07T19:06:34.105Z,25.00
2022-08-07T19:09:09.619Z,25.00
2022-08-07T19:12:18.005Z,24.90
2022-08-07T19:16:03.178Z,24.90
2022-08-07T19:18:34.047Z,24.80
2022-08-07T19:21:44.088Z,24.70
2022-08-07T19:24:06.439Z,24.60
2022-08-07T19:28:28.340Z,24.50
2022-08-07T19:31:05.895Z,24.40
2022-08-07T19:32:26.635Z,24.30
2022-08-07T19:35:02.961Z,24.20
2022-08-07T19:37:55.626Z,24.20
2022-08-07T19:40:31.874Z,24.20
2022-08-07T19:43:09.216Z,24.10
2022-08-07T19:46:09.804Z,24.00
2022-08-07T19:48:42.369Z,24.00
2022-08-07T19:51:20.213Z,23.90
2022-08-07T19:54:33.986Z,23.80
2022-08-07T19:58:01.162Z,23.80
2022-08-07T19:59:47.115Z,23.80
2022-08-07T20:02:20.983Z,23.70
2022-08-07T20:04:52.687Z,23.60
2022-08-07T20:07:46.451Z,23.60
2022-08-07T20:10:36.510Z,23.60
2022-08-07T20:13:22.484Z,23.60
2022-08-07T20:15:54.053Z,23.50
2022-08-07T20:18:32.913Z,23.40
2022-08-07T20:21:20.900Z,23.40
2022-08-07T20:23:54.801Z,23.40
2022-08-07T20:26:38.898Z,23.30
2022-08-07T20:29:49.293Z,23.30
2022-08-07T20:32:11.566Z,23.20
2022-08-07T20:34:53.880Z,23.10
2022-08-07T20:37:25.581Z,23.10
2022-08-07T20:40:02.123Z,23.00
2022-08-07T20:42:32.610Z,23.00
2022-08-07T20:45:04.556Z,22.90
2022-08-07T20:47:57.874Z,22.90
2022-08-07T20:50:30.341Z,22.90
2022-08-07T20:52:59.206Z,22.80
2022-08-07T20:55:27.570Z,22.70
2022-08-07T20:58:04.025Z,22.70
2022-08-07T21:00:46.490Z,22.60
2022-08-07T21:03:18.905Z,22.50
2022-08-07T21:05:56.985Z,22.40
2022-08-07T21:08:37.929Z,22.40
2022-08-07T21:11:14.317Z,22.40
2022-08-07T21:14:16.821Z,22.30
2022-08-07T21:16:56.087Z,22.30
2022-08-07T21:19:51.627Z,22.20
2022-08-07T21:22:28.270Z,22.20
2022-08-07T21:25:12.331Z,22.10
2022-08-07T21:28:01.702Z,22.00
2022-08-07T21:30:38.698Z,22.00
2022-08-07T21:33:17.410Z,22.00
2022-08-07T21:36:05.718Z,22.00
2022-08-07T21:38:50.317Z,21.90
2022-08-07T21:41:27.803Z,21.90
2022-08-07T21:44:14.637Z,21.80
2022-08-07T21:47:00.844Z,21.80
2022-08-07T21:49:40.596Z,21.70
2022-08-07T21:52:35.112Z,21.70
2022-08-07T21:55:10.893Z,21.70
2022-08-07T21:57:52.532Z,21.70
2022-08-07T22:00:24.810Z,21.60
2022-08-07T22:03:03.607Z,21.60
2022-08-07T22:05:48.487Z,21.60
2022-08-07T22:08:21.540Z,21.50
2022-08-07T22:10:55.800Z,21.40
2022-08-07T22:13:51.037Z,21.40
2022-08-07T22:16:43.410Z,21.40
2022-08-07T22:19:12.985Z,21.30
2022-08-07T22:22:02.143Z,21.30
2022-08-07T22:24:38.558Z,21.30
2022-08-07T22:27:18.199Z,21.20
2022-08-07T22:29:51.836Z,21.10
2022-08-07T22:32:30.170Z,21.10
2022-08-07T22:35:02.605Z,21.10
2022-08-07T22:38:01.849Z,21.10
2022-08-07T22:40:52.066Z,21.00
2022-08-07T22:43:33.842Z,20.90
2022-08-07T22:47:03.750Z,20.90
2022-08-07T22:49:39.471Z,20.90
2022-08-07T22:52:51.714Z,20.80
2022-08-07T22:55:32.035Z,20.80
2022-08-07T22:58:28.574Z,20.80
2022-08-07T23:01:18.758Z,20.70
2022-08-07T23:04:03.756Z,20.60
2022-08-07T23:06:51.295Z,20.60
2022-08-07T23:10:05.220Z,20.50
2022-08-07T23:12:37.839Z,20.50
2022-08-07T23:16:04.268Z,20.50
2022-08-07T23:18:25.929Z,20.40
2022-08-07T23:21:09.482Z,20.40
2022-08-07T23:24:11.416Z,20.40
2022-08-07T23:27:02.410Z,20.30
2022-08-07T23:30:37.207Z,20.30
2022-08-07T23:34:22.687Z,20.30
2022-08-07T23:36:05.532Z,20.20
2022-08-07T23:38:55.279Z,20.20
2022-08-07T23:42:04.381Z,20.20
2022-08-07T23:45:15.049Z,20.10
2022-08-07T23:48:18.700Z,20.00
2022-08-07T23:50:54.541Z,20.00
2022-08-07T23:53:50.769Z,19.90
2022-08-07T23:56:26.655Z,19.90
2022-08-07T23:59:10.610Z,19.90
